Time;durP1;ratioP1;P1;durP2;ratioP2;P2;SDS_P1;SDS_P2;PMS_P1;PMS_P2;Temp;Humidity;BMP_temperature;BMP_pressure;BME280_temperature;BME280_humidity;BME280_pressure;Samples;Min_cycle;Max_cycle;Signal;HPM_P1;HPM_P2
2022/07/10 00:01:06;;;;;;;4.10;1.30;;;;;;;15.16;71.58;100315.56;104381;1277;110273;-76
2022/07/10 00:03:34;;;;;;;4.10;1.40;;;;;;;15.11;71.81;100312.96;104378;1277;99821;-77
2022/07/10 00:06:02;;;;;;;3.90;1.10;;;;;;;15.08;72.13;100317.58;104205;1276;139736;-76
2022/07/10 00:08:30;;;;;;;4.80;1.10;;;;;;;15.04;72.54;100316.85;104316;1277;95336;-76
2022/07/10 00:10:58;;;;;;;5.10;1.40;;;;;;;15.02;72.58;100313.91;104171;1276;140659;-76
2022/07/10 00:13:26;;;;;;;5.10;1.40;;;;;;;15.01;72.53;100310.72;104352;1277;110787;-76
2022/07/10 00:15:54;;;;;;;4.30;1.50;;;;;;;15.03;72.79;100304.38;104374;1277;100210;-76
2022/07/10 00:18:21;;;;;;;4.40;1.30;;;;;;;15.03;72.63;100303.85;104129;1276;139540;-76
2022/07/10 00:20:49;;;;;;;4.60;1.40;;;;;;;15.03;72.55;100304.04;104227;1277;95236;-76
2022/07/10 00:23:17;;;;;;;4.70;1.30;;;;;;;14.99;72.90;100305.48;104245;1277;139650;-76
2022/07/10 00:25:45;;;;;;;4.00;1.30;;;;;;;14.94;73.11;100305.67;104340;1277;107958;-77
2022/07/10 00:28:13;;;;;;;3.80;1.10;;;;;;;14.89;73.22;100303.61;104357;1276;99838;-76
2022/07/10 00:30:41;;;;;;;3.60;1.40;;;;;;;14.85;73.45;100305.36;104254;1276;140936;-77
2022/07/10 00:33:09;;;;;;;3.70;1.00;;;;;;;14.82;73.82;100299.63;104347;1277;95144;-76
2022/07/10 00:35:37;;;;;;;3.90;1.20;;;;;;;14.78;73.87;100296.20;104288;1277;140491;-76
2022/07/10 00:38:05;;;;;;;5.50;1.30;;;;;;;14.75;74.14;100293.32;104298;1277;110342;-76
2022/07/10 00:40:33;;;;;;;6.10;1.50;;;;;;;14.72;74.17;100291.66;104275;1277;140364;-76
2022/07/10 00:43:01;;;;;;;4.20;1.40;;;;;;;14.70;74.64;100294.63;104333;1277;109291;-76
2022/07/10 00:45:28;;;;;;;4.20;1.20;;;;;;;14.65;74.61;100290.92;104316;1277;95170;-76
2022/07/10 00:47:56;;;;;;;4.00;1.20;;;;;;;14.65;74.71;100288.96;104267;1277;139992;-76
2022/07/10 00:50:24;;;;;;;5.30;1.40;;;;;;;14.65;74.83;100287.52;104385;1277;109771;-76
2022/07/10 00:52:53;;;;;;;4.70;1.50;;;;;;;14.65;74.83;100286.98;104285;1277;139504;-76
2022/07/10 00:55:21;;;;;;;5.50;1.40;;;;;;;14.65;74.81;100288.59;104329;1277;109318;-75
2022/07/10 00:57:49;;;;;;;4.80;1.50;;;;;;;14.65;75.00;100285.04;104276;1277;95165;-76
2022/07/10 01:00:18;;;;;;;4.10;1.40;;;;;;;14.59;75.16;100287.56;104315;1276;140140;-77
2022/07/10 01:02:47;;;;;;;3.90;1.40;;;;;;;14.56;75.20;100285.75;104698;1277;110453;-77
2022/07/10 01:05:15;;;;;;;4.80;1.40;;;;;;;14.53;75.48;100283.38;104412;1276;140860;-78
2022/07/10 01:07:43;;;;;;;4.30;1.70;;;;;;;14.51;75.58;100277.93;104327;1277;107462;-77
2022/07/10 01:10:11;;;;;;;5.80;1.50;;;;;;;14.50;75.59;100274.02;104336;1277;95335;-77
2022/07/10 01:12:39;;;;;;;6.40;1.90;;;;;;;14.53;75.60;100272.48;104314;1277;140362;-77
2022/07/10 01:15:08;;;;;;;5.00;1.50;;;;;;;14.54;75.59;100272.80;104589;1276;111007;-77
2022/07/10 01:17:36;;;;;;;4.30;1.50;;;;;;;14.54;75.73;100269.38;104967;1276;140621;-78
2022/07/10 01:20:08;;;;;;;4.70;1.70;;;;;;;14.57;75.59;100266.76;104864;1277;110847;-78
2022/07/10 01:22:37;;;;;;;4.20;1.80;;;;;;;14.59;75.44;100266.86;105222;1277;140362;-78
2022/07/10 01:25:06;;;;;;;5.30;2.00;;;;;;;14.58;75.34;100265.67;104765;1277;95166;-77
2022/07/10 01:27:34;;;;;;;4.70;1.60;;;;;;;14.55;75.51;100262.75;104445;1278;110048;-77
2022/07/10 01:30:02;;;;;;;5.40;1.80;;;;;;;14.51;75.52;100256.84;104397;1277;140513;-77
2022/07/10 01:32:38;;;;;;;4.90;1.70;;;;;;;14.50;75.71;100254.77;104312;1277;109545;-77
2022/07/10 01:35:06;;;;;;;4.00;1.50;;;;;;;14.48;75.61;100246.79;104413;1277;141241;-77
2022/07/10 01:37:34;;;;;;;4.50;1.70;;;;;;;14.49;75.71;100245.16;104707;1277;95896;-78
2022/07/10 01:40:03;;;;;;;4.00;1.60;;;;;;;14.50;75.41;100247.25;104671;1276;108763;-78
2022/07/10 01:42:31;;;;;;;4.20;1.70;;;;;;;14.51;75.54;100244.36;104556;1277;138236;-78
2022/07/10 01:44:59;;;;;;;5.00;1.70;;;;;;;14.48;75.51;100245.17;104646;1277;109336;-78
2022/07/10 01:47:33;;;;;;;5.00;1.80;;;;;;;14.50;75.37;100244.90;104493;1277;140870;-78
2022/07/10 01:50:03;;;;;;;4.60;1.80;;;;;;;14.52;75.44;100240.00;104702;1277;97009;-79
2022/07/10 01:52:30;;;;;;;4.60;2.00;;;;;;;14.53;75.33;100234.95;104404;1278;138615;-78
2022/07/10 01:54:58;;;;;;;5.40;1.80;;;;;;;14.54;75.20;100234.17;104666;1276;99900;-77
2022/07/10 01:57:26;;;;;;;5.20;2.00;;;;;;;14.52;75.23;100230.88;104697;1277;109446;-78
2022/07/10 01:59:54;;;;;;;6.10;2.00;;;;;;;14.50;75.37;100236.00;104459;1277;140516;-78
2022/07/10 02:02:22;;;;;;;7.00;2.10;;;;;;;14.48;75.31;100230.36;104393;1277;95150;-78
2022/07/10 02:04:50;;;;;;;6.40;1.80;;;;;;;14.47;75.47;100233.81;104294;1277;140745;-77
2022/07/10 02:07:21;;;;;;;6.70;1.90;;;;;;;14.44;75.52;100233.77;104354;1277;100130;-76
2022/07/10 02:09:49;;;;;;;5.20;1.70;;;;;;;14.43;75.64;100230.79;104545;1277;107749;-77
2022/07/10 02:12:17;;;;;;;4.20;1.60;;;;;;;14.43;75.52;100231.50;104511;1276;140602;-78
2022/07/10 02:14:45;;;;;;;5.90;2.00;;;;;;;14.41;75.42;100227.45;104585;1276;95147;-78
2022/07/10 02:17:13;;;;;;;4.70;1.80;;;;;;;14.43;75.28;100227.76;104578;1276;139220;-79
2022/07/10 02:19:41;;;;;;;4.10;1.40;;;;;;;14.40;75.19;100226.97;104665;1277;99944;-77
2022/07/10 02:22:09;;;;;;;5.20;1.90;;;;;;;14.37;75.24;100224.08;104454;1277;109903;-77
2022/07/10 02:24:37;;;;;;;5.90;2.00;;;;;;;14.37;75.23;100227.08;104317;1277;141565;-77
2022/07/10 02:27:05;;;;;;;4.60;1.80;;;;;;;14.35;75.36;100228.27;104797;1276;95121;-79
2022/07/10 02:29:33;;;;;;;4.40;1.80;;;;;;;14.33;75.46;100228.36;105205;1277;139870;-79
2022/07/10 02:32:00;;;;;;;4.90;2.00;;;;;;;14.34;75.53;100222.42;105357;1277;99561;-78
2022/07/10 02:34:29;;;;;;;5.20;1.90;;;;;;;14.34;75.45;100225.27;104509;1277;139801;-78
2022/07/10 02:36:57;;;;;;;4.90;1.90;;;;;;;14.36;75.46;100222.14;104596;1277;95156;-77
2022/07/10 02:39:25;;;;;;;6.30;2.10;;;;;;;14.36;75.37;100227.32;104740;1277;95883;-79
2022/07/10 02:41:52;;;;;;;5.90;2.00;;;;;;;14.32;75.58;100228.20;105110;1274;137778;-77
2022/07/10 02:44:20;;;;;;;4.60;1.90;;;;;;;14.27;75.65;100224.51;104761;1277;99974;-78
2022/07/10 02:46:49;;;;;;;5.40;2.10;;;;;;;14.25;75.86;100214.96;104433;1277;141192;-78
2022/07/10 02:49:17;;;;;;;5.70;2.40;;;;;;;14.24;75.98;100220.00;104679;1277;97040;-78
2022/07/10 02:51:45;;;;;;;5.00;1.90;;;;;;;14.22;76.09;100217.77;104744;1277;95162;-78
2022/07/10 02:54:12;;;;;;;6.40;2.60;;;;;;;14.20;76.24;100212.13;104347;1276;140150;-78
2022/07/10 02:56:40;;;;;;;5.20;2.00;;;;;;;14.23;76.27;100210.41;104469;1277;98269;-78
2022/07/10 02:59:09;;;;;;;5.80;2.20;;;;;;;14.23;76.67;100204.52;104404;1277;141848;-79
2022/07/10 03:01:36;;;;;;;8.60;2.40;;;;;;;14.20;76.68;100205.89;105530;1277;95175;-79
2022/07/10 03:04:04;;;;;;;4.70;2.10;;;;;;;14.27;76.41;100203.11;105496;1277;95261;-79
2022/07/10 03:06:32;;;;;;;5.50;2.30;;;;;;;14.31;76.34;100204.84;105164;1277;140007;-77
2022/07/10 03:09:00;;;;;;;6.20;2.20;;;;;;;14.35;76.45;100207.89;104566;1276;98518;-78
2022/07/10 03:11:28;;;;;;;5.50;2.50;;;;;;;14.39;76.14;100210.02;104563;1277;138180;-77
2022/07/10 03:13:56;;;;;;;6.70;2.30;;;;;;;14.35;75.97;100205.73;104521;1276;95993;-77
2022/07/10 03:16:24;;;;;;;5.50;2.20;;;;;;;14.35;75.90;100208.08;104420;1277;140740;-77
2022/07/10 03:18:52;;;;;;;6.40;2.50;;;;;;;14.37;75.98;100207.98;104450;1277;110574;-77
2022/07/10 03:21:19;;;;;;;5.60;2.70;;;;;;;14.36;76.06;100206.44;104507;1277;99878;-77
2022/07/10 03:23:47;;;;;;;7.30;2.60;;;;;;;14.37;76.31;100206.75;104656;1277;139116;-79
2022/07/10 03:26:15;;;;;;;5.60;2.60;;;;;;;14.38;76.15;100207.75;105347;1277;95160;-78
2022/07/10 03:28:43;;;;;;;8.30;2.40;;;;;;;14.39;76.04;100206.47;105501;1277;140299;-78
2022/07/10 03:31:11;;;;;;;7.60;2.50;;;;;;;14.42;76.23;100209.39;105594;1277;110643;-78
2022/07/10 03:33:39;;;;;;;8.90;3.00;;;;;;;14.42;76.21;100205.24;105442;1277;99893;-78
2022/07/10 03:36:07;;;;;;;5.60;2.50;;;;;;;14.40;76.44;100207.67;104974;1278;139747;-77
2022/07/10 03:38:35;;;;;;;5.60;2.70;;;;;;;14.41;76.35;100207.81;104521;1276;95329;-77
2022/07/10 03:41:03;;;;;;;6.70;2.50;;;;;;;14.40;76.43;100201.95;104397;1277;141902;-78
2022/07/10 03:43:31;;;;;;;7.10;2.60;;;;;;;14.41;76.69;100201.23;104845;1276;109187;-77
2022/07/10 03:45:58;;;;;;;6.70;2.60;;;;;;;14.40;76.68;100200.16;104590;1277;98457;-77
2022/07/10 03:48:26;;;;;;;6.90;2.40;;;;;;;14.44;76.74;100198.73;104579;1276;140199;-78
2022/07/10 03:50:54;;;;;;;6.10;2.30;;;;;;;14.52;76.70;100202.70;104808;1277;95552;-78
2022/07/10 03:53:22;;;;;;;5.20;2.30;;;;;;;14.55;76.59;100196.45;105305;1277;138880;-78
2022/07/10 03:55:50;;;;;;;7.50;2.80;;;;;;;14.60;76.60;100202.50;105321;1276;108863;-79
2022/07/10 03:58:18;;;;;;;6.50;2.40;;;;;;;14.64;76.51;100205.02;105550;1276;100317;-79
2022/07/10 04:00:46;;;;;;;7.00;2.60;;;;;;;14.66;76.54;100200.47;105425;1277;139586;-78
2022/07/10 04:03:13;;;;;;;7.30;2.90;;;;;;;14.68;76.62;100199.84;105283;1277;95241;-78
2022/07/10 04:05:41;;;;;;;6.20;3.00;;;;;;;14.76;76.44;100206.95;104899;1277;139825;-78
2022/07/10 04:08:09;;;;;;;6.90;2.80;;;;;;;14.81;76.23;100216.36;104908;1277;110194;-78
2022/07/10 04:10:38;;;;;;;6.30;2.90;;;;;;;14.85;76.04;100213.85;104745;1277;140880;-78
2022/07/10 04:13:06;;;;;;;5.80;2.50;;;;;;;14.90;75.85;100212.23;104903;1277;108536;-78
2022/07/10 04:15:34;;;;;;;6.10;2.30;;;;;;;14.95;75.61;100211.98;104918;1277;95140;-79
2022/07/10 04:18:01;;;;;;;5.70;2.10;;;;;;;14.97;75.02;100210.98;105190;1277;139968;-78
2022/07/10 04:20:29;;;;;;;7.10;2.80;;;;;;;14.97;74.80;100210.81;104971;1277;109353;-78
2022/07/10 04:22:57;;;;;;;8.00;2.70;;;;;;;14.97;74.31;100212.08;104800;1277;138782;-78
2022/07/10 04:25:25;;;;;;;5.80;2.30;;;;;;;14.95;74.08;100209.63;104665;1277;110489;-77
2022/07/10 04:27:53;;;;;;;5.60;2.40;;;;;;;14.94;73.78;100212.04;104550;1277;96101;-77
2022/07/10 04:30:21;;;;;;;6.30;2.10;;;;;;;14.92;73.94;100213.39;104485;1277;138401;-77
2022/07/10 04:32:49;;;;;;;5.50;2.20;;;;;;;14.88;73.75;100207.84;104551;1276;109113;-77
2022/07/10 04:35:17;;;;;;;5.70;1.90;;;;;;;14.85;73.41;100206.18;104462;1277;140542;-77
2022/07/10 04:37:44;;;;;;;5.90;2.10;;;;;;;14.83;73.47;100202.17;104508;1276;108817;-77
2022/07/10 04:40:12;;;;;;;7.10;2.20;;;;;;;14.84;73.37;100202.66;104644;1276;95247;-77
2022/07/10 04:42:40;;;;;;;6.00;2.20;;;;;;;14.87;73.37;100200.73;104559;1277;140906;-77
2022/07/10 04:45:08;;;;;;;5.60;2.10;;;;;;;14.90;73.35;100200.56;104522;1277;107646;-77
2022/07/10 04:47:36;;;;;;;5.80;2.00;;;;;;;14.93;73.20;100199.72;104462;1276;140329;-77
2022/07/10 04:50:05;;;;;;;7.30;2.20;;;;;;;14.94;72.81;100199.66;104632;1277;110724;-76
2022/07/10 04:52:32;;;;;;;6.30;2.10;;;;;;;14.96;72.61;100194.61;104768;1276;140340;-78
2022/07/10 04:55:00;;;;;;;5.20;2.00;;;;;;;14.96;72.52;100190.64;104988;1277;95245;-78
2022/07/10 04:57:28;;;;;;;5.10;1.70;;;;;;;14.98;72.45;100195.72;104917;1277;109115;-78
2022/07/10 04:59:56;;;;;;;5.80;1.60;;;;;;;15.03;72.35;100192.45;104914;1277;140802;-78
2022/07/10 05:02:24;;;;;;;4.80;1.50;;;;;;;15.02;71.84;100195.73;104718;1276;197969;-78
2022/07/10 05:04:52;;;;;;;4.40;1.70;;;;;;;15.03;71.85;100192.41;104704;1277;139440;-77
2022/07/10 05:07:20;;;;;;;7.60;1.90;;;;;;;15.07;71.90;100189.92;104741;1277;95179;-77
2022/07/10 05:09:48;;;;;;;4.40;1.50;;;;;;;15.11;71.25;100187.23;104509;1277;110244;-77
2022/07/10 05:12:16;;;;;;;6.80;1.80;;;;;;;15.16;71.08;100183.08;104360;1277;139964;-77
2022/07/10 05:14:44;;;;;;;5.00;1.80;;;;;;;15.30;71.14;100183.67;104477;1277;109401;-77
2022/07/10 05:17:11;;;;;;;6.20;2.00;;;;;;;15.41;70.83;100180.60;104318;1276;139579;-77
2022/07/10 05:19:39;;;;;;;5.40;1.80;;;;;;;15.46;70.54;100179.46;104391;1278;95225;-77
2022/07/10 05:22:09;;;;;;;6.50;1.70;;;;;;;15.47;70.04;100176.71;104419;1277;110248;-77
2022/07/10 05:24:37;;;;;;;6.20;1.70;;;;;;;15.48;69.73;100181.86;104484;1277;138743;-79
2022/07/10 05:27:05;;;;;;;5.40;1.50;;;;;;;15.46;69.36;100174.77;104427;1277;109657;-76
2022/07/10 05:29:33;;;;;;;4.80;1.60;;;;;;;15.47;69.41;100179.39;104405;1277;140684;-77
2022/07/10 05:32:01;;;;;;;4.80;1.80;;;;;;;15.52;69.44;100173.23;104414;1277;95432;-77
2022/07/10 05:34:29;;;;;;;5.20;1.50;;;;;;;15.53;68.90;100176.61;104387;1277;139497;-77
2022/07/10 05:36:56;;;;;;;3.90;1.30;;;;;;;15.53;69.03;100176.73;104439;1277;98327;-77
2022/07/10 05:39:26;;;;;;;6.20;1.70;;;;;;;15.57;69.21;100174.81;104499;1276;108187;-77
2022/07/10 05:41:55;;;;;;;4.70;1.60;;;;;;;15.60;69.16;100174.48;104952;1276;141200;-78
2022/07/10 05:44:24;;;;;;;4.90;1.80;;;;;;;15.63;69.35;100173.91;105111;1276;95165;-78
2022/07/10 05:46:51;;;;;;;4.50;1.80;;;;;;;15.66;69.26;100170.55;105302;1276;139363;-78
2022/07/10 05:49:20;;;;;;;5.60;1.90;;;;;;;15.70;69.36;100165.36;105487;1277;98711;-79
2022/07/10 05:51:47;;;;;;;8.30;2.70;;;;;;;15.70;69.32;100170.19;105377;1277;108742;-79
2022/07/10 05:54:15;;;;;;;6.40;2.20;;;;;;;15.71;69.47;100169.74;105252;1276;139867;-79
2022/07/10 05:56:44;;;;;;;7.20;2.40;;;;;;;15.75;69.32;100170.47;105313;1277;95514;-79
2022/07/10 05:59:12;;;;;;;6.20;2.30;;;;;;;15.78;68.87;100172.13;105158;1277;139621;-79
2022/07/10 06:01:40;;;;;;;7.90;2.80;;;;;;;15.80;68.10;100166.64;105234;1277;99860;-79
2022/07/10 06:04:08;;;;;;;7.50;2.50;;;;;;;15.81;67.91;100167.66;105202;1277;109576;-78
2022/07/10 06:06:36;;;;;;;6.50;3.20;;;;;;;15.87;68.37;100168.29;104984;1277;138624;-77
2022/07/10 06:09:04;;;;;;;8.70;3.50;;;;;;;15.92;68.22;100171.23;104434;1279;95168;-77
2022/07/10 06:11:32;;;;;;;7.30;3.40;;;;;;;15.95;67.93;100171.10;104403;1278;137983;-77
2022/07/10 06:14:00;;;;;;;5.50;3.00;;;;;;;15.94;67.42;100172.94;104600;1276;100131;-78
2022/07/10 06:16:28;;;;;;;8.00;3.30;;;;;;;15.96;67.60;100166.05;104606;1276;138036;-78
2022/07/10 06:18:56;;;;;;;6.80;2.80;;;;;;;15.99;67.18;100167.14;104741;1277;95984;-78
2022/07/10 06:21:24;;;;;;;7.30;2.50;;;;;;;15.97;66.87;100164.52;105339;1277;95675;-77
2022/07/10 06:23:52;;;;;;;5.20;1.80;;;;;;;15.98;66.77;100161.45;104422;1277;140555;-78
2022/07/10 06:26:20;;;;;;;6.70;1.90;;;;;;;16.00;66.59;100166.52;104653;1277;100260;-78
2022/07/10 06:28:48;;;;;;;4.70;1.50;;;;;;;16.01;66.94;100163.59;105103;1277;139762;-78
2022/07/10 06:31:15;;;;;;;6.50;1.50;;;;;;;16.01;67.50;100163.77;104671;1277;95208;-78
2022/07/10 06:33:43;;;;;;;4.80;1.30;;;;;;;16.06;67.83;100161.54;105644;1275;95220;-79
2022/07/10 06:36:12;;;;;;;6.30;1.30;;;;;;;16.06;67.25;100163.53;105580;1277;139854;-79
2022/07/10 06:38:41;;;;;;;5.30;1.40;;;;;;;16.04;67.12;100160.37;105108;1278;99392;-79
2022/07/10 06:41:10;;;;;;;5.20;1.30;;;;;;;16.05;66.99;100155.89;105319;1277;138973;-78
2022/07/10 06:43:38;;;;;;;4.20;1.20;;;;;;;16.02;66.66;100159.23;105193;1277;95299;-80
2022/07/10 06:46:06;;;;;;;4.30;1.30;;;;;;;16.00;66.82;100161.86;105336;1277;95218;-80
2022/07/10 06:48:36;;;;;;;4.50;1.30;;;;;;;15.99;66.64;100157.41;105272;1276;140965;-79
2022/07/10 06:51:06;;;;;;;5.80;1.20;;;;;;;16.05;66.59;100161.44;105368;1277;100017;-79
2022/07/10 06:53:34;;;;;;;6.30;1.20;;;;;;;16.12;66.32;100159.45;105283;1277;139162;-79
2022/07/10 06:56:03;;;;;;;7.00;1.30;;;;;;;16.19;65.77;100161.77;105272;1277;95307;-79
2022/07/10 06:58:30;;;;;;;5.40;1.30;;;;;;;16.24;65.48;100157.77;104742;1277;138540;-77
2022/07/10 07:00:58;;;;;;;4.40;1.20;;;;;;;16.33;65.44;100160.29;104839;1277;108682;-79
2022/07/10 07:03:26;;;;;;;4.50;1.00;;;;;;;16.46;65.49;100160.15;104848;1276;99428;-79
2022/07/10 07:05:54;;;;;;;5.20;1.50;;;;;;;16.57;64.27;100159.89;105268;1277;139045;-79
2022/07/10 07:08:22;;;;;;;4.60;1.00;;;;;;;16.64;64.03;100162.03;105401;1277;95172;-80
2022/07/10 07:10:50;;;;;;;6.00;1.20;;;;;;;16.67;63.72;100161.27;105405;1277;139491;-80
2022/07/10 07:13:18;;;;;;;5.10;1.20;;;;;;;16.73;63.90;100161.34;105273;1277;110099;-78
2022/07/10 07:16:00;;;;;;;3.30;0.90;;;;;;;16.83;63.71;100161.52;105217;1276;99684;-77
2022/07/10 07:18:35;;;;;;;6.10;1.40;;;;;;;16.86;63.69;100160.05;104435;1276;139186;-77
2022/07/10 07:24:05;;;;;;;6.90;1.40;;;;;;;17.27;63.79;100159.05;104268;1277;140307;-79
2022/07/10 07:26:32;;;;;;;5.70;1.50;;;;;;;17.54;62.36;100155.66;105515;1276;109683;-79
2022/07/10 07:29:00;;;;;;;6.50;1.30;;;;;;;17.76;61.61;100154.89;105299;1277;140146;-78
2022/07/10 07:31:28;;;;;;;5.30;1.10;;;;;;;17.91;61.28;100157.22;105445;1277;109054;-79
2022/07/10 07:33:57;;;;;;;9.00;1.40;;;;;;;18.05;59.20;100151.92;105304;1277;95270;-77
2022/07/10 07:36:25;;;;;;;6.80;1.20;;;;;;;18.13;59.18;100152.17;104556;1277;140085;-80
2022/07/10 07:38:53;;;;;;;5.50;1.30;;;;;;;18.19;58.70;100148.73;105103;1279;109501;-78
2022/07/10 07:41:22;;;;;;;6.10;1.20;;;;;;;18.27;58.63;100145.01;105209;1276;139999;-78
2022/07/10 07:43:50;;;;;;;7.50;1.20;;;;;;;18.28;57.68;100143.15;105282;1277;109349;-78
2022/07/10 07:46:19;;;;;;;5.60;0.90;;;;;;;18.22;57.62;100144.08;104852;1277;95128;-80
2022/07/10 07:48:47;;;;;;;7.70;1.10;;;;;;;18.13;57.97;100141.73;105413;1277;95147;-81
2022/07/10 07:51:15;;;;;;;4.40;1.20;;;;;;;18.09;58.96;100139.80;105406;1277;109081;-81
2022/07/10 07:53:43;;;;;;;6.20;1.10;;;;;;;18.02;58.26;100141.31;105257;1277;139514;-77
2022/07/10 07:56:11;;;;;;;4.30;1.20;;;;;;;17.90;58.47;100142.59;105390;1277;109635;-79
2022/07/10 07:58:39;;;;;;;4.30;1.20;;;;;;;17.85;59.08;100145.21;105048;1277;139457;-80
2022/07/10 08:01:07;;;;;;;5.10;1.30;;;;;;;17.81;59.03;100145.42;105189;1277;95140;-78
2022/07/10 08:03:35;;;;;;;3.90;0.90;;;;;;;17.76;58.54;100142.30;105207;1277;109602;-78
2022/07/10 08:06:23;;;;;;;6.30;0.90;;;;;;;17.68;58.42;100141.52;105085;1277;139777;-79
2022/07/10 08:08:51;;;;;;;4.00;0.90;;;;;;;17.63;58.43;100140.95;105153;1277;109700;-79
2022/07/10 08:11:19;;;;;;;4.30;1.00;;;;;;;17.64;58.45;100138.94;105062;1277;138260;-80
2022/07/10 08:13:47;;;;;;;3.40;0.80;;;;;;;17.63;57.20;100142.91;105288;1277;95233;-80
2022/07/10 08:16:15;;;;;;;4.70;0.80;;;;;;;17.64;57.76;100145.73;105384;1277;109208;-81
2022/07/10 08:18:42;;;;;;;7.20;1.20;;;;;;;17.75;57.34;100151.91;105182;1277;140716;-80
2022/07/10 08:21:11;;;;;;;5.10;1.00;;;;;;;17.81;57.16;100145.95;105360;1276;109557;-79
2022/07/10 08:23:39;;;;;;;4.90;0.70;;;;;;;17.91;57.20;100149.17;105169;1277;138496;-79
2022/07/10 08:26:07;;;;;;;5.70;0.90;;;;;;;17.94;57.05;100147.60;105246;1277;94257;-79
2022/07/10 08:28:35;;;;;;;5.80;1.10;;;;;;;17.95;56.32;100145.89;105154;1277;139495;-80
2022/07/10 08:31:03;;;;;;;2.70;0.60;;;;;;;18.10;56.26;100147.86;105293;1277;99610;-79
2022/07/10 08:33:31;;;;;;;4.80;0.80;;;;;;;18.14;55.59;100152.23;105203;1277;109390;-80
2022/07/10 08:36:00;;;;;;;3.70;0.80;;;;;;;18.10;56.09;100148.77;105304;1277;138630;-78
2022/07/10 08:38:47;;;;;;;4.00;0.90;;;;;;;18.05;56.50;100151.20;105261;1276;95931;-79
2022/07/10 08:41:22;;;;;;;4.00;0.70;;;;;;;17.95;55.22;100154.89;105128;1277;139634;-79
2022/07/10 08:43:50;;;;;;;6.80;1.10;;;;;;;17.84;55.00;100156.59;104759;1277;99022;-80
2022/07/10 08:46:18;;;;;;;4.60;0.90;;;;;;;17.80;55.19;100156.64;105154;1277;109970;-79
2022/07/10 08:48:53;;;;;;;3.30;0.60;;;;;;;17.76;54.10;100153.83;105232;1277;95236;-79
2022/07/10 08:51:35;;;;;;;3.70;0.70;;;;;;;17.88;54.96;100150.42;105266;1277;95205;-80
2022/07/10 08:54:05;;;;;;;4.70;0.70;;;;;;;18.04;54.87;100146.62;105149;1277;139886;-78
2022/07/10 08:56:34;;;;;;;6.00;1.10;;;;;;;18.28;55.02;100140.08;105434;1277;99829;-80
2022/07/10 08:59:06;;;;;;;3.60;0.80;;;;;;;18.55;54.23;100134.59;105244;1276;140389;-80
2022/07/10 09:01:34;;;;;;;5.60;1.10;;;;;;;18.81;53.66;100137.25;105287;1277;95925;-78
2022/07/10 09:04:02;;;;;;;5.90;1.10;;;;;;;18.94;52.76;100133.80;105380;1277;95132;-78
2022/07/10 09:06:30;;;;;;;6.20;1.50;;;;;;;18.98;52.12;100127.02;105304;1277;139746;-81
2022/07/10 09:09:03;;;;;;;5.10;1.70;;;;;;;19.08;52.18;100119.71;105558;1277;98847;-80
2022/07/10 09:11:33;;;;;;;6.80;1.30;;;;;;;19.24;52.20;100118.11;105253;1277;138091;-81
2022/07/10 09:14:04;;;;;;;4.80;0.80;;;;;;;19.20;51.70;100118.37;105625;1277;96042;-78
2022/07/10 09:16:37;;;;;;;5.40;1.00;;;;;;;19.02;51.91;100117.20;105278;1276;140884;-78
2022/07/10 09:19:31;;;;;;;4.30;1.20;;;;;;;18.85;52.91;100127.81;105530;1274;109773;-79
2022/07/10 09:22:10;;;;;;;5.30;0.90;;;;;;;18.70;52.73;100132.75;105662;1276;99140;-80
2022/07/10 09:24:43;;;;;;;2.40;0.70;;;;;;;18.78;53.58;100123.45;105510;1277;138481;-80
2022/07/10 09:27:14;;;;;;;4.60;0.90;;;;;;;19.85;51.18;100121.85;105728;1277;95143;-82
2022/07/10 09:29:47;;;;;;;4.80;0.80;;;;;;;20.59;49.05;100113.77;105896;1277;138772;-79
2022/07/10 09:32:17;;;;;;;5.40;0.80;;;;;;;21.34;47.74;100110.63;105573;1277;110610;-80
2022/07/10 09:34:47;;;;;;;3.70;0.70;;;;;;;22.21;46.87;100104.85;105568;1277;141150;-80
2022/07/10 09:37:18;;;;;;;;;;;;;;;23.35;43.93;100100.07;106101;1276;109623;-82
2022/07/10 09:40:03;;;;;;;;;;;;;;;24.08;41.21;100104.33;105600;1277;96092;-80
2022/07/10 09:42:37;;;;;;;3.10;0.70;;;;;;;23.12;41.89;100112.48;105390;1277;126794;-82
2022/07/10 09:45:17;;;;;;;4.40;0.80;;;;;;;22.59;43.91;100114.27;105899;1277;109188;-80
2022/07/10 09:47:52;;;;;;;5.90;0.80;;;;;;;22.91;43.40;100101.69;105701;1276;140845;-79
2022/07/10 09:50:23;;;;;;;4.80;1.00;;;;;;;23.90;41.26;100093.92;105846;1276;106770;-79
2022/07/10 09:52:53;;;;;;;3.60;0.70;;;;;;;25.07;37.12;100098.01;105934;1276;139713;-80
2022/07/10 09:55:24;;;;;;;3.00;0.70;;;;;;;25.47;36.03;100096.96;106157;1276;95781;-82
2022/07/10 09:58:01;;;;;;;4.50;0.80;;;;;;;25.41;36.55;100096.27;106028;1276;110224;-80
2022/07/10 10:00:31;;;;;;;5.00;0.80;;;;;;;25.38;36.62;100097.38;105753;1277;140304;-81
2022/07/10 10:03:01;;;;;;;4.20;0.70;;;;;;;24.55;37.10;100101.30;105940;1277;108921;-82
2022/07/10 10:05:52;;;;;;;4.00;0.80;;;;;;;23.76;38.08;100109.27;105845;1277;139532;-81
2022/07/10 10:08:49;;;;;;;5.40;0.80;;;;;;;22.99;39.21;100109.95;105850;1277;95673;-81
2022/07/10 10:11:20;;;;;;;4.40;1.10;;;;;;;22.25;40.68;100118.23;106036;1277;139604;-81
2022/07/10 10:13:49;;;;;;;3.30;0.80;;;;;;;21.77;42.13;100121.23;106437;1276;99023;-82
2022/07/10 10:16:22;;;;;;;6.60;0.80;;;;;;;21.45;42.52;100124.45;105845;1277;108353;-80
2022/07/10 10:21:39;;;;;;;4.00;0.80;;;;;;;20.83;43.27;100131.23;105294;1277;95141;-79
2022/07/10 10:24:07;;;;;;;3.10;0.50;;;;;;;20.65;43.80;100130.36;105596;1276;138558;-80
2022/07/10 10:26:35;;;;;;;2.70;0.50;;;;;;;20.42;43.31;100130.71;105524;1276;99957;-80
2022/07/10 10:29:04;;;;;;;3.30;0.50;;;;;;;20.54;43.07;100125.54;105120;1277;138814;-77
2022/07/10 10:31:34;;;;;;;3.50;0.60;;;;;;;22.11;41.90;100119.88;104784;1277;95291;-79
2022/07/10 10:34:02;;;;;;;4.60;0.80;;;;;;;23.73;38.61;100108.78;104783;1276;95794;-79
2022/07/10 10:36:44;;;;;;;3.10;0.70;;;;;;;25.13;37.18;100102.41;105068;1278;139060;-80
2022/07/10 10:39:16;;;;;;;3.80;0.90;;;;;;;26.37;33.84;100100.41;106822;1277;98265;-83
2022/07/10 10:41:50;;;;;;;2.80;0.60;;;;;;;27.11;32.72;100095.16;106423;1277;140250;-80
2022/07/10 10:44:18;;;;;;;4.50;0.90;;;;;;;26.94;33.44;100105.60;106949;1276;93482;-79
2022/07/10 10:47:06;;;;;;;3.60;0.60;;;;;;;27.39;32.05;100096.10;106850;1277;138025;-80
2022/07/10 10:49:49;;;;;;;3.20;0.80;;;;;;;27.26;31.58;100094.75;106933;1276;109548;-80
2022/07/10 10:52:18;;;;;;;6.10;2.10;;;;;;;28.08;32.33;100095.63;106522;1277;98815;-79
2022/07/10 10:54:55;;;;;;;4.90;0.90;;;;;;;28.35;31.19;100092.77;106830;1277;138850;-78
2022/07/10 10:57:36;;;;;;;4.70;0.90;;;;;;;27.44;32.79;100096.53;106832;1277;95102;-79
2022/07/10 11:00:07;;;;;;;4.90;0.90;;;;;;;26.55;33.50;100099.94;106290;1277;142108;-78
2022/07/10 11:02:38;;;;;;;5.20;0.90;;;;;;;25.93;35.24;100100.57;106355;1277;109984;-81
2022/07/10 11:05:18;;;;;;;4.70;0.80;;;;;;;25.38;35.78;100098.11;105901;1277;138705;-80
2022/07/10 11:08:03;;;;;;;4.90;1.00;;;;;;;24.82;36.78;100093.83;105966;1277;108207;-79
2022/07/10 11:10:37;;;;;;;5.40;0.90;;;;;;;24.56;37.49;100091.07;105791;1278;140070;-81
2022/07/10 11:13:15;;;;;;;4.50;0.90;;;;;;;24.21;38.30;100094.35;106076;1277;95192;-79
2022/07/10 11:15:45;;;;;;;4.90;1.10;;;;;;;23.99;37.61;100094.61;105299;1277;109514;-80
2022/07/10 11:18:25;;;;;;;3.90;0.90;;;;;;;23.95;37.84;100089.23;105895;1277;140962;-81
2022/07/10 11:20:53;;;;;;;4.80;0.90;;;;;;;23.82;37.42;100088.85;106041;1277;109427;-81
2022/07/10 11:23:59;;;;;;;5.00;0.90;;;;;;;23.60;37.82;100085.76;105965;1277;139930;-81
2022/07/10 11:26:49;;;;;;;5.00;1.10;;;;;;;23.26;37.75;100087.47;105885;1277;95061;-82
2022/07/10 11:29:18;;;;;;;6.20;1.40;;;;;;;23.10;39.19;100080.77;105994;1276;139195;-81